Time;durP1;ratioP1;P1;durP2;ratioP2;P2;SDS_P1;SDS_P2;PMS_P1;PMS_P2;Temp;Humidity;BMP_temperature;BMP_pressure;BME280_temperature;BME280_humidity;BME280_pressure;Samples;Min_cycle;Max_cycle;Signal;HPM_P1;HPM_P2
2023/09/04 00:02:03;;;;;;;6.70;6.20;;;;;;;;;;5095547;28;20686;-64
2023/09/04 00:04:31;;;;;;;8.63;7.93;;;;;;;;;;5086245;28;20662;-62
2023/09/04 00:07:02;;;;;;;6.50;6.00;;;;;;;;;;5076718;28;21210;-63
2023/09/04 00:09:30;;;;;;;7.57;6.97;;;;;;;;;;5080415;28;21049;-62
2023/09/04 00:11:58;;;;;;;6.63;6.13;;;;;;;;;;5096842;28;20713;-62
2023/09/04 00:14:27;;;;;;;8.07;7.37;;;;;;;;;;5096968;28;20661;-63
2023/09/04 00:16:55;;;;;;;7.57;6.83;;;;;;;;;;5097715;28;20691;-66
2023/09/04 00:19:23;;;;;;;8.07;6.83;;;;;;;;;;5096695;28;20721;-64
2023/09/04 00:21:51;;;;;;;7.70;6.90;;;;;;;;;;5093956;28;20702;-62
2023/09/04 00:24:22;;;;;;;8.77;7.27;;;;;;;;;;5095513;28;20675;-63
2023/09/04 00:26:50;;;;;;;8.27;7.47;;;;;;;;;;5097413;28;20704;-62
2023/09/04 00:29:19;;;;;;;8.50;7.70;;;;;;;;;;5096854;28;20663;-63
2023/09/04 00:31:47;;;;;;;9.70;7.83;;;;;;;;;;5097182;28;20794;-62
2023/09/04 00:34:15;;;;;;;7.60;6.93;;;;;;;;;;5096845;28;20772;-63
2023/09/04 00:36:43;;;;;;;7.47;6.87;;;;;;;;;;5097103;28;21043;-64
2023/09/04 00:39:12;;;;;;;8.33;7.33;;;;;;;;;;5095771;28;20786;-62
2023/09/04 00:41:41;;;;;;;7.63;6.93;;;;;;;;;;5095122;28;20712;-63
2023/09/04 00:44:10;;;;;;;11.30;8.00;;;;;;;;;;5096548;28;20709;-62
2023/09/04 00:46:38;;;;;;;8.60;7.60;;;;;;;;;;5096403;28;20690;-62
2023/09/04 00:49:06;;;;;;;7.27;6.67;;;;;;;;;;5096737;28;20696;-63
2023/09/04 00:51:35;;;;;;;9.80;8.00;;;;;;;;;;5097254;28;20708;-65
2023/09/04 00:54:04;;;;;;;7.70;6.80;;;;;;;;;;5096859;28;21292;-63
2023/09/04 00:56:32;;;;;;;9.83;8.83;;;;;;;;;;5095568;28;20717;-62
2023/09/04 00:59:02;;;;;;;8.20;7.40;;;;;;;;;;5096331;28;20663;-63
2023/09/04 01:01:30;;;;;;;8.97;7.97;;;;;;;;;;5095140;28;20996;-63
2023/09/04 01:03:59;;;;;;;8.77;7.97;;;;;;;;;;5088990;28;20807;-65
2023/09/04 01:06:28;;;;;;;6.97;6.30;;;;;;;;;;5082669;28;20712;-63
2023/09/04 01:08:56;;;;;;;8.00;7.30;;;;;;;;;;5095901;28;21519;-64
2023/09/04 01:11:27;;;;;;;7.40;6.80;;;;;;;;;;5096761;28;20709;-62
2023/09/04 01:13:56;;;;;;;6.33;5.93;;;;;;;;;;5095954;28;20700;-66
2023/09/04 01:16:26;;;;;;;7.73;6.30;;;;;;;;;;5096625;28;20636;-62
2023/09/04 01:18:54;;;;;;;6.67;6.10;;;;;;;;;;5095825;28;20623;-62
2023/09/04 01:21:24;;;;;;;6.97;6.47;;;;;;;;;;5097662;28;20688;-65
2023/09/04 01:23:52;;;;;;;6.40;5.90;;;;;;;;;;5085075;28;20679;-62
2023/09/04 01:26:22;;;;;;;7.03;6.53;;;;;;;;;;5096552;28;20685;-63
2023/09/04 01:28:57;;;;;;;6.73;6.00;;;;;;;;;;5096297;28;20699;-62
2023/09/04 01:31:28;;;;;;;6.40;5.90;;;;;;;;;;5096427;28;20741;-67
2023/09/04 01:33:57;;;;;;;8.00;6.50;;;;;;;;;;5095548;28;20781;-63
2023/09/04 01:36:31;;;;;;;7.40;6.60;;;;;;;;;;5097832;28;20648;-63
2023/09/04 01:38:59;;;;;;;7.77;7.13;;;;;;;;;;5100030;28;20712;-63
2023/09/04 01:41:27;;;;;;;7.73;6.93;;;;;;;;;;5100509;28;20720;-62
2023/09/04 01:43:56;;;;;;;6.97;6.37;;;;;;;;;;5099865;28;20692;-63
2023/09/04 01:46:24;;;;;;;7.63;6.93;;;;;;;;;;5099672;28;20717;-62
2023/09/04 01:48:52;;;;;;;7.70;7.10;;;;;;;;;;5100165;28;20721;-62
2023/09/04 01:51:21;;;;;;;7.70;6.93;;;;;;;;;;5099561;28;21435;-62
2023/09/04 01:53:50;;;;;;;8.40;7.20;;;;;;;;;;5099958;28;20985;-62
2023/09/04 01:56:18;;;;;;;8.10;6.93;;;;;;;;;;5099601;28;20755;-62
2023/09/04 01:58:47;;;;;;;8.87;7.87;;;;;;;;;;5095677;28;21045;-62
2023/09/04 02:01:15;;;;;;;9.30;7.00;;;;;;;;;;5097292;28;20744;-65
2023/09/04 02:03:45;;;;;;;8.30;7.50;;;;;;;;;;5098486;28;20785;-63
2023/09/04 02:06:13;;;;;;;7.83;7.17;;;;;;;;;;5093351;28;20667;-62
2023/09/04 02:08:41;;;;;;;8.10;7.30;;;;;;;;;;5097486;28;20738;-62
2023/09/04 02:11:11;;;;;;;8.17;6.90;;;;;;;;;;5100052;28;20688;-63
2023/09/04 02:13:39;;;;;;;8.30;7.47;;;;;;;;;;5098956;28;20666;-62
2023/09/04 02:16:07;;;;;;;6.80;6.30;;;;;;;;;;5082040;28;20657;-62
2023/09/04 02:18:35;;;;;;;7.37;6.77;;;;;;;;;;5099360;28;20713;-63
2023/09/04 02:21:04;;;;;;;7.23;6.53;;;;;;;;;;5099177;28;20711;-63
2023/09/04 02:23:32;;;;;;;7.70;7.10;;;;;;;;;;5099664;28;20737;-62
2023/09/04 02:26:02;;;;;;;8.00;6.83;;;;;;;;;;5097798;28;21055;-62
2023/09/04 02:28:32;;;;;;;7.57;6.87;;;;;;;;;;5099365;28;20746;-62
2023/09/04 02:31:06;;;;;;;8.20;6.90;;;;;;;;;;5097376;28;20693;-62
2023/09/04 02:33:34;;;;;;;8.20;7.50;;;;;;;;;;5097955;28;20723;-63
2023/09/04 02:36:06;;;;;;;7.60;6.80;;;;;;;;;;5097552;28;20641;-62
2023/09/04 02:38:34;;;;;;;9.37;7.73;;;;;;;;;;5099002;28;20676;-62
2023/09/04 02:41:02;;;;;;;7.97;7.30;;;;;;;;;;5093502;28;20626;-62
2023/09/04 02:43:32;;;;;;;8.20;7.40;;;;;;;;;;5097722;28;20685;-62
2023/09/04 02:46:00;;;;;;;8.47;7.67;;;;;;;;;;5098539;28;21044;-62
2023/09/04 02:48:28;;;;;;;8.60;7.90;;;;;;;;;;5097715;28;20704;-62
2023/09/04 02:50:58;;;;;;;7.97;7.13;;;;;;;;;;5098179;28;20693;-63
2023/09/04 02:53:28;;;;;;;9.80;7.40;;;;;;;;;;5096948;28;20708;-62
2023/09/04 02:55:57;;;;;;;9.27;7.40;;;;;;;;;;5080989;28;20675;-62
2023/09/04 02:58:25;;;;;;;8.40;7.20;;;;;;;;;;5098547;28;20679;-67
2023/09/04 03:00:55;;;;;;;8.73;7.93;;;;;;;;;;5097653;28;20712;-63
2023/09/04 03:03:24;;;;;;;10.90;7.70;;;;;;;;;;5091095;28;20729;-63
2023/09/04 03:05:52;;;;;;;8.00;7.30;;;;;;;;;;5082042;28;20618;-63
2023/09/04 03:08:20;;;;;;;11.13;7.37;;;;;;;;;;5096606;28;20832;-63
2023/09/04 03:10:48;;;;;;;8.00;7.30;;;;;;;;;;5097936;28;20691;-62
2023/09/04 03:13:17;;;;;;;9.13;8.33;;;;;;;;;;5096946;28;20602;-63
2023/09/04 03:15:45;;;;;;;8.00;7.20;;;;;;;;;;5098406;28;20628;-63
2023/09/04 03:18:15;;;;;;;8.27;7.57;;;;;;;;;;5096702;28;20705;-62
2023/09/04 03:20:44;;;;;;;8.00;7.30;;;;;;;;;;5118782;27;20712;-63
2023/09/04 03:23:13;;;;;;;9.20;8.30;;;;;;;;;;5097214;28;20704;-63
2023/09/04 03:25:41;;;;;;;9.00;8.23;;;;;;;;;;5098113;28;20687;-62
2023/09/04 03:28:10;;;;;;;8.53;7.63;;;;;;;;;;5095755;28;20716;-65
2023/09/04 03:30:39;;;;;;;8.70;8.00;;;;;;;;;;5095218;28;20708;-62
2023/09/04 03:33:08;;;;;;;9.43;8.20;;;;;;;;;;5095643;28;20702;-63
2023/09/04 03:35:39;;;;;;;8.20;7.50;;;;;;;;;;5097279;28;20704;-63
2023/09/04 03:38:07;;;;;;;8.07;7.03;;;;;;;;;;5097167;28;21176;-62
2023/09/04 03:40:36;;;;;;;8.80;8.07;;;;;;;;;;5096524;28;20689;-63
2023/09/04 03:43:04;;;;;;;8.87;7.97;;;;;;;;;;5096391;28;20728;-63
2023/09/04 03:45:33;;;;;;;8.90;8.03;;;;;;;;;;5097333;28;20688;-63
2023/09/04 03:48:02;;;;;;;9.00;8.30;;;;;;;;;;5097882;28;20737;-64
2023/09/04 03:50:30;;;;;;;10.43;9.53;;;;;;;;;;5096820;28;20734;-62
2023/09/04 03:53:00;;;;;;;9.30;8.40;;;;;;;;;;5098065;28;20692;-62
2023/09/04 03:55:28;;;;;;;9.53;8.50;;;;;;;;;;5097012;28;20696;-62
2023/09/04 03:57:58;;;;;;;8.90;8.00;;;;;;;;;;5098707;28;20779;-63
2023/09/04 04:00:26;;;;;;;11.40;8.70;;;;;;;;;;5097819;28;20717;-63
2023/09/04 04:02:54;;;;;;;9.80;8.80;;;;;;;;;;5097418;28;20675;-63
2023/09/04 04:05:23;;;;;;;10.90;7.47;;;;;;;;;;5095133;28;20690;-62
2023/09/04 04:07:52;;;;;;;9.77;8.83;;;;;;;;;;5097350;28;20708;-62
2023/09/04 04:10:23;;;;;;;10.30;9.27;;;;;;;;;;5098950;28;20672;-62
2023/09/04 04:12:53;;;;;;;8.33;7.70;;;;;;;;;;5098656;28;20708;-62
2023/09/04 04:15:21;;;;;;;11.80;9.10;;;;;;;;;;5097833;28;20705;-63
2023/09/04 04:17:49;;;;;;;9.90;9.00;;;;;;;;;;5098259;28;21102;-62
2023/09/04 04:20:18;;;;;;;10.20;8.47;;;;;;;;;;5098226;28;20758;-62
2023/09/04 04:22:46;;;;;;;17.60;9.80;;;;;;;;;;5098780;28;21014;-62
2023/09/04 04:25:14;;;;;;;8.70;8.00;;;;;;;;;;5098235;28;21192;-62
2023/09/04 04:27:45;;;;;;;9.17;8.37;;;;;;;;;;5097038;28;20699;-62
2023/09/04 04:30:13;;;;;;;9.80;8.90;;;;;;;;;;5097952;28;20680;-63
2023/09/04 04:32:42;;;;;;;9.50;8.60;;;;;;;;;;5099209;28;20690;-62
2023/09/04 04:35:10;;;;;;;9.43;8.60;;;;;;;;;;5097113;28;20706;-63
2023/09/04 04:37:39;;;;;;;10.57;9.50;;;;;;;;;;5097399;28;20724;-62
2023/09/04 04:40:09;;;;;;;11.53;10.20;;;;;;;;;;5096626;28;21215;-62
2023/09/04 04:42:39;;;;;;;12.03;9.57;;;;;;;;;;5097443;28;20663;-65
2023/09/04 04:45:11;;;;;;;9.57;8.57;;;;;;;;;;5097441;28;20640;-60
2023/09/04 04:47:39;;;;;;;10.20;9.20;;;;;;;;;;5090783;28;20689;-61
2023/09/04 04:50:08;;;;;;;9.80;8.90;;;;;;;;;;5099792;28;20659;-61
2023/09/04 04:52:37;;;;;;;10.53;9.10;;;;;;;;;;5082357;28;20697;-61
2023/09/04 04:55:06;;;;;;;10.03;9.10;;;;;;;;;;5098598;28;20745;-61
2023/09/04 04:57:34;;;;;;;12.50;10.43;;;;;;;;;;5089189;28;20687;-61
2023/09/04 05:00:06;;;;;;;10.20;9.23;;;;;;;;;;5097980;28;20671;-62
2023/09/04 05:02:37;;;;;;;10.40;9.40;;;;;;;;;;5097084;28;20700;-62
2023/09/04 05:05:05;;;;;;;9.20;8.23;;;;;;;;;;5090641;28;20740;-62
2023/09/04 05:07:34;;;;;;;14.63;8.80;;;;;;;;;;5099204;28;20621;-61
2023/09/04 05:10:03;;;;;;;10.00;9.07;;;;;;;;;;5099600;28;20693;-61
2023/09/04 05:12:31;;;;;;;13.87;9.87;;;;;;;;;;5101656;28;20681;-62
2023/09/04 05:14:59;;;;;;;9.97;8.97;;;;;;;;;;5105247;28;20678;-62
2023/09/04 05:17:28;;;;;;;9.37;8.30;;;;;;;;;;5102611;28;20743;-61
2023/09/04 05:19:58;;;;;;;9.77;8.77;;;;;;;;;;5104316;28;21023;-62
2023/09/04 05:22:26;;;;;;;9.57;8.77;;;;;;;;;;5101047;28;20695;-61
2023/09/04 05:24:54;;;;;;;9.80;8.90;;;;;;;;;;5105763;28;20676;-61
2023/09/04 05:27:23;;;;;;;9.73;8.57;;;;;;;;;;5105118;28;20716;-62
2023/09/04 05:29:51;;;;;;;12.47;9.13;;;;;;;;;;5104382;28;20667;-61
2023/09/04 05:32:19;;;;;;;9.30;8.57;;;;;;;;;;5105017;28;20748;-61
2023/09/04 05:34:47;;;;;;;8.90;8.10;;;;;;;;;;5102674;28;20675;-61
2023/09/04 05:37:17;;;;;;;9.47;8.57;;;;;;;;;;5105332;28;21305;-61
2023/09/04 05:39:45;;;;;;;9.27;8.47;;;;;;;;;;5099134;28;20700;-63
2023/09/04 05:42:13;;;;;;;11.90;8.40;;;;;;;;;;5092417;28;20633;-63
2023/09/04 05:44:42;;;;;;;8.97;8.07;;;;;;;;;;5093578;28;20601;-62
2023/09/04 05:47:10;;;;;;;10.10;7.50;;;;;;;;;;5093494;28;20600;-64
2023/09/04 05:49:38;;;;;;;9.37;8.47;;;;;;;;;;5092950;28;20590;-63
2023/09/04 05:52:07;;;;;;;8.77;7.80;;;;;;;;;;5093200;28;20621;-64
2023/09/04 05:54:36;;;;;;;8.63;7.73;;;;;;;;;;5093210;28;20613;-64
2023/09/04 05:57:05;;;;;;;14.47;8.80;;;;;;;;;;5094230;28;20623;-63
2023/09/04 05:59:33;;;;;;;8.67;7.87;;;;;;;;;;5092613;28;20591;-63
2023/09/04 06:02:02;;;;;;;9.90;6.93;;;;;;;;;;5094407;28;20621;-64
2023/09/04 06:04:30;;;;;;;7.73;7.03;;;;;;;;;;5097672;28;20673;-64
2023/09/04 06:06:58;;;;;;;9.60;8.80;;;;;;;;;;5084991;28;20724;-66
2023/09/04 06:09:26;;;;;;;9.60;8.17;;;;;;;;;;5094397;28;20753;-65
2023/09/04 06:11:56;;;;;;;9.50;8.17;;;;;;;;;;5104703;28;20617;-67
2023/09/04 06:14:25;;;;;;;7.50;6.90;;;;;;;;;;5105176;28;20677;-64
2023/09/04 06:16:53;;;;;;;9.40;8.40;;;;;;;;;;5101889;28;20708;-64
2023/09/04 06:19:22;;;;;;;8.60;7.40;;;;;;;;;;5111362;28;20610;-65
2023/09/04 06:21:50;;;;;;;8.13;7.47;;;;;;;;;;5113350;28;20637;-64
2023/09/04 06:24:18;;;;;;;9.57;8.20;;;;;;;;;;5109280;28;20629;-65
2023/09/04 06:26:46;;;;;;;7.23;6.53;;;;;;;;;;5109879;28;20623;-62
2023/09/04 06:29:16;;;;;;;10.63;6.97;;;;;;;;;;5111991;28;20603;-67
2023/09/04 06:31:45;;;;;;;8.50;7.70;;;;;;;;;;5112485;28;20613;-65
2023/09/04 06:34:13;;;;;;;7.80;7.00;;;;;;;;;;5105128;28;20727;-66
2023/09/04 06:36:42;;;;;;;7.37;6.70;;;;;;;;;;5111178;28;20679;-65
2023/09/04 06:39:10;;;;;;;8.70;6.83;;;;;;;;;;5094335;28;20617;-65
2023/09/04 06:41:38;;;;;;;6.40;5.90;;;;;;;;;;5091346;28;20584;-66
2023/09/04 06:44:06;;;;;;;7.53;6.87;;;;;;;;;;5091890;28;21085;-66
2023/09/04 06:46:36;;;;;;;6.53;5.93;;;;;;;;;;5090917;28;20629;-66
2023/09/04 06:49:04;;;;;;;9.20;6.10;;;;;;;;;;5091917;28;20624;-66
2023/09/04 06:51:32;;;;;;;7.00;6.50;;;;;;;;;;5089562;28;20690;-65
2023/09/04 06:54:01;;;;;;;6.77;6.17;;;;;;;;;;5092216;28;20619;-65
2023/09/04 06:56:29;;;;;;;6.13;5.53;;;;;;;;;;5091220;28;20629;-66
2023/09/04 06:58:57;;;;;;;6.27;5.77;;;;;;;;;;5091732;28;20661;-67
2023/09/04 07:01:25;;;;;;;5.97;5.47;;;;;;;;;;5089692;28;20625;-67
2023/09/04 07:03:55;;;;;;;6.90;6.17;;;;;;;;;;5091462;28;21017;-67
2023/09/04 07:06:23;;;;;;;5.80;5.30;;;;;;;;;;5089553;28;20637;-68
2023/09/04 07:08:53;;;;;;;5.57;5.17;;;;;;;;;;5092102;28;20647;-67
2023/09/04 07:11:21;;;;;;;6.17;5.67;;;;;;;;;;5091923;28;20624;-67
2023/09/04 07:13:49;;;;;;;5.67;5.27;;;;;;;;;;5091503;28;21164;-67
2023/09/04 07:16:17;;;;;;;5.90;5.40;;;;;;;;;;5090566;28;21067;-67
2023/09/04 07:18:45;;;;;;;10.00;5.73;;;;;;;;;;5091462;28;20668;-68
2023/09/04 07:21:15;;;;;;;5.83;5.33;;;;;;;;;;5090740;28;21194;-67
2023/09/04 07:23:43;;;;;;;6.33;5.73;;;;;;;;;;5088620;28;20625;-66
2023/09/04 07:26:11;;;;;;;6.57;5.80;;;;;;;;;;5091725;28;20682;-67
2023/09/04 07:28:40;;;;;;;4.77;4.47;;;;;;;;;;5090672;28;20618;-66
2023/09/04 07:31:15;;;;;;;5.60;5.10;;;;;;;;;;5091184;28;20625;-67
2023/09/04 07:33:43;;;;;;;5.70;5.20;;;;;;;;;;5090647;28;20706;-66
2023/09/04 07:36:11;;;;;;;5.47;5.07;;;;;;;;;;5091311;28;20681;-66
2023/09/04 07:38:41;;;;;;;5.57;5.17;;;;;;;;;;5090675;28;20649;-66
2023/09/04 07:41:10;;;;;;;5.37;4.97;;;;;;;;;;5091126;28;20611;-66
2023/09/04 07:43:38;;;;;;;5.00;4.70;;;;;;;;;;5089317;28;20617;-66
2023/09/04 07:46:06;;;;;;;6.30;5.20;;;;;;;;;;5090084;28;20625;-65
2023/09/04 07:48:35;;;;;;;4.87;4.57;;;;;;;;;;5090428;28;20643;-65
2023/09/04 07:51:05;;;;;;;6.73;4.50;;;;;;;;;;5089330;28;20625;-66
2023/09/04 07:53:33;;;;;;;5.10;4.70;;;;;;;;;;5076389;28;20625;-65
2023/09/04 07:56:03;;;;;;;4.83;4.53;;;;;;;;;;5091536;28;20613;-66
2023/09/04 07:58:31;;;;;;;5.83;5.33;;;;;;;;;;5090074;28;20682;-67
2023/09/04 08:00:59;;;;;;;4.87;4.57;;;;;;;;;;5086291;28;20625;-65
2023/09/04 08:03:27;;;;;;;4.87;4.47;;;;;;;;;;5091661;28;20649;-65
2023/09/04 08:05:56;;;;;;;8.73;5.00;;;;;;;;;;5090997;28;20623;-66
2023/09/04 08:08:24;;;;;;;4.47;4.27;;;;;;;;;;5085579;28;20628;-66
2023/09/04 08:10:53;;;;;;;5.00;4.70;;;;;;;;;;5072191;28;21231;-65
2023/09/04 08:13:23;;;;;;;5.50;5.10;;;;;;;;;;5079462;28;20621;-65
2023/09/04 08:15:51;;;;;;;7.80;5.37;;;;;;;;;;5091303;28;20987;-65
2023/09/04 08:18:19;;;;;;;4.83;4.20;;;;;;;;;;5071457;28;20658;-65
2023/09/04 08:20:48;;;;;;;3.83;3.60;;;;;;;;;;5090311;28;20880;-65
2023/09/04 08:23:16;;;;;;;4.50;4.20;;;;;;;;;;5091803;28;20627;-66
2023/09/04 08:25:45;;;;;;;4.53;4.23;;;;;;;;;;5089559;28;21145;-65
2023/09/04 08:28:13;;;;;;;4.33;3.93;;;;;;;;;;5091146;28;20613;-66
2023/09/04 08:30:42;;;;;;;4.67;4.27;;;;;;;;;;5089031;28;21208;-67
2023/09/04 08:33:11;;;;;;;6.43;4.87;;;;;;;;;;5090446;28;20606;-66
2023/09/04 08:35:39;;;;;;;4.60;4.20;;;;;;;;;;5087830;28;20627;-66
2023/09/04 08:38:08;;;;;;;4.43;4.13;;;;;;;;;;5090774;28;20649;-66
2023/09/04 08:40:36;;;;;;;5.03;4.53;;;;;;;;;;5089858;28;20613;-66
2023/09/04 08:43:05;;;;;;;4.57;4.33;;;;;;;;;;5089692;28;20674;-66
2023/09/04 08:45:34;;;;;;;4.83;4.30;;;;;;;;;;5088834;28;20622;-65
2023/09/04 08:48:05;;;;;;;5.30;4.80;;;;;;;;;;5094387;28;20621;-65
2023/09/04 08:50:33;;;;;;;5.70;5.30;;;;;;;;;;5092732;28;20605;-66
2023/09/04 08:53:02;;;;;;;5.47;5.00;;;;;;;;;;5092661;28;21001;-66
2023/09/04 08:55:48;;;;;;;5.60;5.10;;;;;;;;;;5094048;28;20684;-66
2023/09/04 08:58:17;;;;;;;4.87;4.57;;;;;;;;;;5094039;28;20653;-65
2023/09/04 09:00:47;;;;;;;4.60;4.30;;;;;;;;;;5093474;28;21064;-66
2023/09/04 09:03:18;;;;;;;6.17;5.77;;;;;;;;;;5101634;28;21397;-67
2023/09/04 09:05:48;;;;;;;5.13;4.73;;;;;;;;;;5095369;28;20696;-66
2023/09/04 09:08:16;;;;;;;5.07;4.67;;;;;;;;;;5102081;28;20696;-67
2023/09/04 09:10:45;;;;;;;5.67;5.33;;;;;;;;;;5103113;28;20728;-66
2023/09/04 09:13:15;;;;;;;7.00;4.73;;;;;;;;;;5101760;28;20717;-66
2023/09/04 09:15:44;;;;;;;6.57;6.07;;;;;;;;;;5100023;28;20704;-66
2023/09/04 09:18:12;;;;;;;4.90;4.70;;;;;;;;;;5102192;28;20728;-66
2023/09/04 09:20:43;;;;;;;7.00;6.40;;;;;;;;;;5098825;28;20708;-66
2023/09/04 09:23:11;;;;;;;5.53;5.23;;;;;;;;;;5096721;28;20617;-66
2023/09/04 09:25:39;;;;;;;5.07;4.57;;;;;;;;;;5098888;28;20727;-66
2023/09/04 09:28:08;;;;;;;6.80;5.30;;;;;;;;;;5077566;28;21250;-64
2023/09/04 09:30:37;;;;;;;5.10;4.80;;;;;;;;;;5095408;28;20622;-67
2023/09/04 09:33:06;;;;;;;4.87;4.57;;;;;;;;;;5096653;28;20974;-64
2023/09/04 09:35:34;;;;;;;5.80;5.40;;;;;;;;;;5097001;28;20638;-66
2023/09/04 09:38:04;;;;;;;5.40;5.10;;;;;;;;;;5100604;28;20636;-66
2023/09/04 09:40:38;;;;;;;6.80;5.73;;;;;;;;;;5097368;28;20699;-66
2023/09/04 09:43:08;;;;;;;6.37;5.07;;;;;;;;;;5099428;28;21265;-66
2023/09/04 09:45:37;;;;;;;5.40;5.07;;;;;;;;;;5094636;28;20625;-66
2023/09/04 09:48:05;;;;;;;5.33;5.03;;;;;;;;;;5094109;28;20621;-66
2023/09/04 09:50:34;;;;;;;5.70;5.37;;;;;;;;;;5094296;28;21018;-66
2023/09/04 09:53:06;;;;;;;5.93;5.53;;;;;;;;;;5092428;28;20687;-65
2023/09/04 09:55:36;;;;;;;6.23;5.73;;;;;;;;;;5099801;28;21226;-67
2023/09/04 09:58:05;;;;;;;6.03;5.73;;;;;;;;;;5096739;28;20731;-72
2023/09/04 10:00:33;;;;;;;5.30;5.00;;;;;;;;;;5093511;28;20652;-70
2023/09/04 10:03:02;;;;;;;6.20;5.87;;;;;;;;;;5093038;28;20621;-69
2023/09/04 10:05:31;;;;;;;5.40;5.10;;;;;;;;;;5083203;28;20719;-70
2023/09/04 10:08:01;;;;;;;7.43;5.63;;;;;;;;;;5084275;28;20629;-70
2023/09/04 10:10:31;;;;;;;5.60;5.30;;;;;;;;;;5093952;28;20613;-70
2023/09/04 10:13:05;;;;;;;6.10;5.80;;;;;;;;;;5073403;28;20575;-70
2023/09/04 10:15:35;;;;;;;6.10;5.80;;;;;;;;;;5085423;28;20620;-69
2023/09/04 10:18:06;;;;;;;6.33;5.93;;;;;;;;;;5092641;28;20594;-70
2023/09/04 10:20:35;;;;;;;6.60;6.20;;;;;;;;;;5092800;28;20633;-71
2023/09/04 10:23:07;;;;;;;9.80;7.93;;;;;;;;;;5093016;28;21189;-69
2023/09/04 10:25:43;;;;;;;6.13;5.80;;;;;;;;;;5085999;28;20620;-68
2023/09/04 10:28:14;;;;;;;6.53;6.23;;;;;;;;;;5091439;28;20616;-69
2023/09/04 10:30:46;;;;;;;6.83;6.33;;;;;;;;;;5093619;28;20602;-71
2023/09/04 10:33:15;;;;;;;7.53;6.80;;;;;;;;;;5093036;28;20625;-73
2023/09/04 10:35:43;;;;;;;7.80;7.00;;;;;;;;;;5091667;28;21154;-72
2023/09/04 10:38:12;;;;;;;7.63;6.80;;;;;;;;;;5093011;28;20635;-71
2023/09/04 10:40:42;;;;;;;6.93;6.60;;;;;;;;;;5093781;28;20653;-72
2023/09/04 10:43:10;;;;;;;6.87;6.57;;;;;;;;;;5093418;28;20622;-72
2023/09/04 10:45:39;;;;;;;7.33;6.73;;;;;;;;;;5094058;28;21263;-72
2023/09/04 10:48:08;;;;;;;7.10;6.50;;;;;;;;;;5087416;28;21164;-71
2023/09/04 10:50:37;;;;;;;7.10;6.60;;;;;;;;;;5093962;28;20727;-70
2023/09/04 10:53:07;;;;;;;8.00;7.60;;;;;;;;;;5091222;28;20732;-68
2023/09/04 10:55:36;;;;;;;7.87;7.43;;;;;;;;;;5092860;28;20706;-68
2023/09/04 10:58:06;;;;;;;7.83;7.23;;;;;;;;;;5092865;28;21200;-67
2023/09/04 11:00:35;;;;;;;7.80;7.40;;;;;;;;;;5092678;28;21232;-68
2023/09/04 11:03:13;;;;;;;17.93;7.53;;;;;;;;;;5090906;28;20692;-67
2023/09/04 11:06:00;;;;;;;7.43;6.90;;;;;;;;;;5086720;28;20625;-67
2023/09/04 11:08:29;;;;;;;7.57;7.17;;;;;;;;;;5090294;28;20638;-68
2023/09/04 11:11:01;;;;;;;7.73;7.23;;;;;;;;;;5091969;28;20609;-68
2023/09/04 11:13:31;;;;;;;8.93;8.13;;;;;;;;;;5093350;28;20866;-68
2023/09/04 11:15:59;;;;;;;10.90;9.97;;;;;;;;;;5091666;28;20681;-67
2023/09/04 11:18:29;;;;;;;9.17;8.57;;;;;;;;;;5091242;28;20621;-67
2023/09/04 11:20:59;;;;;;;8.73;8.27;;;;;;;;;;5091714;28;20657;-67
2023/09/04 11:23:28;;;;;;;8.70;8.30;;;;;;;;;;5090733;28;20617;-68
2023/09/04 11:25:57;;;;;;;10.07;8.87;;;;;;;;;;5091869;28;21187;-68
2023/09/04 11:28:28;;;;;;;9.00;8.60;;;;;;;;;;5091489;28;20616;-69
2023/09/04 11:31:01;;;;;;;8.80;8.23;;;;;;;;;;5092498;28;20677;-70
2023/09/04 11:33:31;;;;;;;9.00;8.50;;;;;;;;;;5090029;28;21336;-71
2023/09/04 11:36:00;;;;;;;9.30;8.90;;;;;;;;;;5072510;28;20606;-70
2023/09/04 11:38:29;;;;;;;9.33;8.90;;;;;;;;;;5090773;28;21051;-68
2023/09/04 11:40:58;;;;;;;9.17;8.67;;;;;;;;;;5090322;28;21230;-68
2023/09/04 11:43:27;;;;;;;8.93;8.33;;;;;;;;;;5091853;28;20621;-70
2023/09/04 11:45:56;;;;;;;9.47;9.07;;;;;;;;;;5090470;28;21003;-70
2023/09/04 11:48:26;;;;;;;9.20;8.70;;;;;;;;;;5090159;28;20629;-70
2023/09/04 11:50:54;;;;;;;8.83;8.43;;;;;;;;;;5089714;28;20624;-69
2023/09/04 11:53:23;;;;;;;9.80;9.10;;;;;;;;;;5091371;28;20625;-72
2023/09/04 11:55:52;;;;;;;9.40;8.83;;;;;;;;;;5093393;28;20709;-71
2023/09/04 11:58:20;;;;;;;10.10;9.40;;;;;;;;;;5093827;28;20618;-72
2023/09/04 12:00:53;;;;;;;10.53;9.80;;;;;;;;;;5091906;28;20625;-70
2023/09/04 12:03:21;;;;;;;9.47;9.07;;;;;;;;;;5091128;28;20660;-69
2023/09/04 12:05:54;;;;;;;9.77;9.13;;;;;;;;;;5070761;28;20655;-71
2023/09/04 12:08:22;;;;;;;9.37;8.80;;;;;;;;;;5071070;28;21148;-70
2023/09/04 12:10:51;;;;;;;9.83;9.23;;;;;;;;;;5083645;28;20618;-69
2023/09/04 12:13:19;;;;;;;9.93;9.43;;;;;;;;;;5091235;28;20984;-70
2023/09/04 12:15:48;;;;;;;9.20;8.60;;;;;;;;;;5091870;28;20612;-69
2023/09/04 12:18:16;;;;;;;9.30;8.77;;;;;;;;;;5090061;28;20946;-71
2023/09/04 12:20:45;;;;;;;9.87;9.30;;;;;;;;;;5089993;28;20665;-70
2023/09/04 12:23:14;;;;;;;9.60;9.20;;;;;;;;;;5084951;28;21040;-70
2023/09/04 12:25:51;;;;;;;10.43;9.83;;;;;;;;;;5090231;28;20601;-68
2023/09/04 12:28:19;;;;;;;9.30;8.97;;;;;;;;;;5089512;28;21170;-70
2023/09/04 12:30:47;;;;;;;10.70;10.10;;;;;;;;;;5091263;28;20613;-71
2023/09/04 12:33:16;;;;;;;10.23;9.63;;;;;;;;;;5090425;28;20626;-70
2023/09/04 12:35:45;;;;;;;9.70;9.20;;;;;;;;;;5081175;28;20627;-69
2023/09/04 12:38:14;;;;;;;9.37;8.93;;;;;;;;;;5079866;28;20637;-70
2023/09/04 12:40:42;;;;;;;9.47;9.07;;;;;;;;;;5088328;28;21014;-70
2023/09/04 12:43:10;;;;;;;9.43;9.03;;;;;;;;;;5091024;28;20625;-69
2023/09/04 12:45:39;;;;;;;9.63;9.10;;;;;;;;;;5094118;28;20739;-71
2023/09/04 12:48:14;;;;;;;10.40;9.53;;;;;;;;;;5093735;28;20625;-72
2023/09/04 12:50:43;;;;;;;10.73;9.90;;;;;;;;;;5091051;28;20646;-70
2023/09/04 12:53:11;;;;;;;10.20;9.70;;;;;;;;;;5091143;28;20625;-67
2023/09/04 12:55:41;;;;;;;9.20;8.77;;;;;;;;;;5090447;28;20625;-68
2023/09/04 12:58:10;;;;;;;37.20;10.20;;;;;;;;;;5091257;28;20643;-68
2023/09/04 13:00:40;;;;;;;10.50;9.80;;;;;;;;;;5087279;28;20686;-68
2023/09/04 13:03:09;;;;;;;9.83;9.33;;;;;;;;;;5091212;28;20625;-71
2023/09/04 13:05:37;;;;;;;9.50;8.97;;;;;;;;;;5080473;28;20652;-68
2023/09/04 13:08:06;;;;;;;9.40;8.80;;;;;;;;;;5090400;28;20957;-68
2023/09/04 13:10:43;;;;;;;10.53;9.93;;;;;;;;;;5085449;28;20620;-69
2023/09/04 13:13:14;;;;;;;9.00;8.60;;;;;;;;;;5083531;28;20593;-69
2023/09/04 13:15:44;;;;;;;10.10;9.60;;;;;;;;;;5089572;28;20610;-69
2023/09/04 13:18:12;;;;;;;10.20;9.10;;;;;;;;;;5090548;28;20617;-71
2023/09/04 13:20:41;;;;;;;9.60;9.07;;;;;;;;;;5091025;28;20709;-71
2023/09/04 13:23:09;;;;;;;10.20;9.70;;;;;;;;;;5090115;28;20674;-71
2023/09/04 13:25:37;;;;;;;9.63;9.23;;;;;;;;;;5091757;28;20629;-72
2023/09/04 13:28:07;;;;;;;10.30;9.30;;;;;;;;;;5094456;28;20700;-71
2023/09/04 13:30:35;;;;;;;9.90;9.40;;;;;;;;;;5093980;28;20609;-69
2023/09/04 13:33:03;;;;;;;10.33;9.60;;;;;;;;;;5092768;28;21222;-69
2023/09/04 13:35:32;;;;;;;10.00;8.97;;;;;;;;;;5094861;28;20586;-70
2023/09/04 13:38:00;;;;;;;9.90;9.50;;;;;;;;;;5094443;28;20672;-70
2023/09/04 13:40:28;;;;;;;10.07;9.37;;;;;;;;;;5094823;28;20653;-70
2023/09/04 13:42:56;;;;;;;9.60;8.90;;;;;;;;;;5093545;28;21204;-70
2023/09/04 13:45:26;;;;;;;9.43;9.00;;;;;;;;;;5093989;28;21127;-73
2023/09/04 13:47:54;;;;;;;9.77;9.27;;;;;;;;;;5095228;28;20549;-73
2023/09/04 13:50:22;;;;;;;9.23;8.87;;;;;;;;;;5091350;28;21268;-72
2023/09/04 13:52:50;;;;;;;10.03;9.43;;;;;;;;;;5091158;28;20721;-69
2023/09/04 13:55:20;;;;;;;9.10;8.70;;;;;;;;;;5094149;28;20625;-72
2023/09/04 13:57:50;;;;;;;9.90;8.93;;;;;;;;;;5092377;28;20632;-72
2023/09/04 14:00:19;;;;;;;9.30;8.90;;;;;;;;;;5091220;28;20968;-74
2023/09/04 14:02:49;;;;;;;10.83;10.30;;;;;;;;;;5073699;28;20662;-72
2023/09/04 14:05:17;;;;;;;9.70;9.20;;;;;;;;;;5078652;28;20666;-72
2023/09/04 14:07:45;;;;;;;11.40;10.57;;;;;;;;;;5079037;28;21059;-74
2023/09/04 14:10:13;;;;;;;9.20;8.80;;;;;;;;;;5093966;28;20633;-74
2023/09/04 14:12:41;;;;;;;9.40;9.00;;;;;;;;;;5090728;28;20637;-68
2023/09/04 14:15:10;;;;;;;9.63;9.13;;;;;;;;;;5093990;28;20636;-71
2023/09/04 14:17:38;;;;;;;8.67;8.27;;;;;;;;;;5092585;28;20617;-70
2023/09/04 14:20:08;;;;;;;9.23;8.83;;;;;;;;;;5093991;28;20635;-72
2023/09/04 14:22:36;;;;;;;9.10;8.60;;;;;;;;;;5089873;28;20644;-68
2023/09/04 14:25:04;;;;;;;9.77;9.07;;;;;;;;;;5092623;28;20622;-68
2023/09/04 14:27:32;;;;;;;10.23;9.83;;;;;;;;;;5093395;28;20616;-68
2023/09/04 14:30:00;;;;;;;10.50;9.70;;;;;;;;;;5092994;28;20639;-68
2023/09/04 14:32:28;;;;;;;9.20;8.80;;;;;;;;;;5073167;28;20695;-69
2023/09/04 14:34:56;;;;;;;9.60;8.80;;;;;;;;;;5092840;28;21017;-68
2023/09/04 14:37:26;;;;;;;9.87;9.27;;;;;;;;;;5093379;28;20632;-69
2023/09/04 14:40:00;;;;;;;9.57;9.10;;;;;;;;;;5093259;28;20974;-69
2023/09/04 14:42:29;;;;;;;9.17;8.77;;;;;;;;;;5091788;28;20631;-69
2023/09/04 14:44:57;;;;;;;9.40;9.00;;;;;;;;;;5093148;28;20974;-69
2023/09/04 14:47:25;;;;;;;9.17;8.77;;;;;;;;;;5093041;28;20616;-68
2023/09/04 14:49:53;;;;;;;9.47;9.07;;;;;;;;;;5093069;28;20628;-69
2023/09/04 14:52:22;;;;;;;10.10;9.50;;;;;;;;;;5093524;28;20595;-69